sensor_id;sensor_type;location;lat;lon;timestamp;P1;durP1;ratioP1;P2;durP2;ratioP2
25503;SDS011;13410;52.114;5.718;2022-11-24T00:01:10;24.30;;;4.88;;
25503;SDS011;13410;52.114;5.718;2022-11-24T00:03:39;28.40;;;4.55;;
25503;SDS011;13410;52.114;5.718;2022-11-24T00:06:06;29.08;;;5.38;;
25503;SDS011;13410;52.114;5.718;2022-11-24T00:08:34;35.05;;;5.10;;
25503;SDS011;13410;52.114;5.718;2022-11-24T00:11:01;24.63;;;4.55;;
25503;SDS011;13410;52.114;5.718;2022-11-24T00:13:28;29.65;;;4.65;;
25503;SDS011;13410;52.114;5.718;2022-11-24T00:15:54;26.13;;;4.97;;
25503;SDS011;13410;52.114;5.718;2022-11-24T00:18:28;28.35;;;4.57;;
25503;SDS011;13410;52.114;5.718;2022-11-24T00:20:55;29.52;;;4.93;;
25503;SDS011;13410;52.114;5.718;2022-11-24T00:23:20;40.20;;;5.10;;
25503;SDS011;13410;52.114;5.718;2022-11-24T00:25:46;26.30;;;4.60;;
25503;SDS011;13410;52.114;5.718;2022-11-24T00:28:11;34.20;;;4.40;;
25503;SDS011;13410;52.114;5.718;2022-11-24T00:30:37;28.42;;;4.50;;
25503;SDS011;13410;52.114;5.718;2022-11-24T00:33:03;26.52;;;4.38;;
25503;SDS011;13410;52.114;5.718;2022-11-24T00:35:28;28.38;;;4.32;;
25503;SDS011;13410;52.114;5.718;2022-11-24T00:37:54;23.38;;;4.22;;
25503;SDS011;13410;52.114;5.718;2022-11-24T00:40:20;26.33;;;4.53;;
25503;SDS011;13410;52.114;5.718;2022-11-24T00:42:45;24.90;;;4.40;;
25503;SDS011;13410;52.114;5.718;2022-11-24T00:45:11;27.27;;;4.05;;
25503;SDS011;13410;52.114;5.718;2022-11-24T00:47:36;29.13;;;4.57;;
25503;SDS011;13410;52.114;5.718;2022-11-24T00:50:02;26.90;;;4.10;;
25503;SDS011;13410;52.114;5.718;2022-11-24T00:52:28;25.45;;;4.07;;
25503;SDS011;13410;52.114;5.718;2022-11-24T00:54:54;25.75;;;3.92;;
25503;SDS011;13410;52.114;5.718;2022-11-24T00:57:19;20.88;;;4.22;;
25503;SDS011;13410;52.114;5.718;2022-11-24T00:59:45;22.10;;;4.18;;
25503;SDS011;13410;52.114;5.718;2022-11-24T01:02:10;28.40;;;4.18;;
25503;SDS011;13410;52.114;5.718;2022-11-24T01:04:36;21.52;;;3.88;;
25503;SDS011;13410;52.114;5.718;2022-11-24T01:07:02;17.73;;;4.00;;
25503;SDS011;13410;52.114;5.718;2022-11-24T01:09:27;25.65;;;3.90;;
25503;SDS011;13410;52.114;5.718;2022-11-24T01:11:53;23.15;;;3.67;;
25503;SDS011;13410;52.114;5.718;2022-11-24T01:14:29;23.42;;;3.63;;
25503;SDS011;13410;52.114;5.718;2022-11-24T01:16:55;21.13;;;3.53;;
25503;SDS011;13410;52.114;5.718;2022-11-24T01:19:22;22.67;;;4.25;;
25503;SDS011;13410;52.114;5.718;2022-11-24T01:21:48;28.05;;;3.92;;
25503;SDS011;13410;52.114;5.718;2022-11-24T01:24:14;18.35;;;3.80;;
25503;SDS011;13410;52.114;5.718;2022-11-24T01:26:40;27.85;;;4.30;;
25503;SDS011;13410;52.114;5.718;2022-11-24T01:29:05;30.45;;;3.65;;
25503;SDS011;13410;52.114;5.718;2022-11-24T01:31:31;17.27;;;3.60;;
25503;SDS011;13410;52.114;5.718;2022-11-24T01:33:57;17.92;;;3.38;;
25503;SDS011;13410;52.114;5.718;2022-11-24T01:36:23;22.05;;;3.50;;
25503;SDS011;13410;52.114;5.718;2022-11-24T01:38:48;28.92;;;3.67;;
25503;SDS011;13410;52.114;5.718;2022-11-24T01:41:19;20.00;;;3.45;;
25503;SDS011;13410;52.114;5.718;2022-11-24T01:43:46;21.23;;;2.97;;
25503;SDS011;13410;52.114;5.718;2022-11-24T01:46:21;27.20;;;3.60;;
25503;SDS011;13410;52.114;5.718;2022-11-24T01:49:00;20.98;;;3.88;;
25503;SDS011;13410;52.114;5.718;2022-11-24T01:51:59;20.25;;;3.20;;
25503;SDS011;13410;52.114;5.718;2022-11-24T01:54:31;20.40;;;3.35;;
25503;SDS011;13410;52.114;5.718;2022-11-24T01:57:34;17.02;;;2.92;;
25503;SDS011;13410;52.114;5.718;2022-11-24T01:59:58;20.60;;;3.25;;
25503;SDS011;13410;52.114;5.718;2022-11-24T02:02:33;21.52;;;3.35;;
25503;SDS011;13410;52.114;5.718;2022-11-24T02:05:00;18.52;;;3.47;;
25503;SDS011;13410;52.114;5.718;2022-11-24T02:07:30;22.58;;;3.00;;
25503;SDS011;13410;52.114;5.718;2022-11-24T02:09:58;21.33;;;3.53;;
25503;SDS011;13410;52.114;5.718;2022-11-24T02:12:27;24.20;;;3.30;;
25503;SDS011;13410;52.114;5.718;2022-11-24T02:14:53;23.95;;;3.40;;
25503;SDS011;13410;52.114;5.718;2022-11-24T02:17:20;17.95;;;3.03;;
25503;SDS011;13410;52.114;5.718;2022-11-24T02:19:48;18.50;;;2.97;;
25503;SDS011;13410;52.114;5.718;2022-11-24T02:22:23;20.63;;;3.10;;
25503;SDS011;13410;52.114;5.718;2022-11-24T02:27:35;26.33;;;3.35;;
25503;SDS011;13410;52.114;5.718;2022-11-24T02:30:01;18.98;;;2.75;;
25503;SDS011;13410;52.114;5.718;2022-11-24T02:32:30;15.45;;;2.58;;
25503;SDS011;13410;52.114;5.718;2022-11-24T02:35:02;13.65;;;2.40;;
25503;SDS011;13410;52.114;5.718;2022-11-24T02:37:29;19.33;;;3.08;;
25503;SDS011;13410;52.114;5.718;2022-11-24T02:39:55;19.45;;;3.20;;
25503;SDS011;13410;52.114;5.718;2022-11-24T02:42:21;17.02;;;2.90;;
25503;SDS011;13410;52.114;5.718;2022-11-24T02:44:48;15.88;;;2.95;;
25503;SDS011;13410;52.114;5.718;2022-11-24T02:47:16;17.25;;;2.78;;
25503;SDS011;13410;52.114;5.718;2022-11-24T02:49:42;17.05;;;3.10;;
25503;SDS011;13410;52.114;5.718;2022-11-24T02:52:08;17.15;;;2.53;;
25503;SDS011;13410;52.114;5.718;2022-11-24T02:54:33;22.95;;;2.40;;
25503;SDS011;13410;52.114;5.718;2022-11-24T02:56:59;17.05;;;2.70;;
25503;SDS011;13410;52.114;5.718;2022-11-24T02:59:25;20.10;;;2.92;;
25503;SDS011;13410;52.114;5.718;2022-11-24T03:01:50;15.43;;;2.72;;
25503;SDS011;13410;52.114;5.718;2022-11-24T03:04:16;26.02;;;2.88;;
25503;SDS011;13410;52.114;5.718;2022-11-24T03:06:42;20.10;;;2.67;;
25503;SDS011;13410;52.114;5.718;2022-11-24T03:09:08;20.45;;;2.97;;
25503;SDS011;13410;52.114;5.718;2022-11-24T03:11:35;19.83;;;2.70;;
25503;SDS011;13410;52.114;5.718;2022-11-24T03:14:01;18.20;;;2.55;;
25503;SDS011;13410;52.114;5.718;2022-11-24T03:16:27;17.95;;;2.78;;
25503;SDS011;13410;52.114;5.718;2022-11-24T03:18:53;24.50;;;2.83;;
25503;SDS011;13410;52.114;5.718;2022-11-24T03:21:47;18.15;;;2.78;;
25503;SDS011;13410;52.114;5.718;2022-11-24T03:24:12;13.75;;;2.72;;
25503;SDS011;13410;52.114;5.718;2022-11-24T03:26:38;21.88;;;2.90;;
25503;SDS011;13410;52.114;5.718;2022-11-24T03:29:05;14.00;;;2.65;;
25503;SDS011;13410;52.114;5.718;2022-11-24T03:31:31;28.25;;;2.90;;
25503;SDS011;13410;52.114;5.718;2022-11-24T03:33:57;19.92;;;3.00;;
25503;SDS011;13410;52.114;5.718;2022-11-24T03:36:23;21.70;;;2.72;;
25503;SDS011;13410;52.114;5.718;2022-11-24T03:38:48;16.27;;;3.03;;
25503;SDS011;13410;52.114;5.718;2022-11-24T03:41:14;17.60;;;2.88;;
25503;SDS011;13410;52.114;5.718;2022-11-24T03:43:40;16.20;;;2.88;;
25503;SDS011;13410;52.114;5.718;2022-11-24T03:46:06;13.77;;;2.67;;
25503;SDS011;13410;52.114;5.718;2022-11-24T03:48:32;18.70;;;2.83;;
25503;SDS011;13410;52.114;5.718;2022-11-24T03:50:58;16.90;;;2.90;;
25503;SDS011;13410;52.114;5.718;2022-11-24T03:53:25;18.13;;;3.40;;
25503;SDS011;13410;52.114;5.718;2022-11-24T03:55:52;19.35;;;3.25;;
25503;SDS011;13410;52.114;5.718;2022-11-24T03:58:18;20.05;;;3.25;;
25503;SDS011;13410;52.114;5.718;2022-11-24T04:00:44;18.52;;;2.83;;
25503;SDS011;13410;52.114;5.718;2022-11-24T04:03:12;19.95;;;3.08;;
25503;SDS011;13410;52.114;5.718;2022-11-24T04:05:38;21.15;;;3.58;;
25503;SDS011;13410;52.114;5.718;2022-11-24T04:08:03;14.45;;;2.80;;
25503;SDS011;13410;52.114;5.718;2022-11-24T04:10:33;21.38;;;3.10;;
25503;SDS011;13410;52.114;5.718;2022-11-24T04:13:01;20.08;;;2.67;;
25503;SDS011;13410;52.114;5.718;2022-11-24T04:15:47;20.05;;;3.30;;
25503;SDS011;13410;52.114;5.718;2022-11-24T04:18:13;19.75;;;2.85;;
25503;SDS011;13410;52.114;5.718;2022-11-24T04:20:39;20.52;;;3.45;;
25503;SDS011;13410;52.114;5.718;2022-11-24T04:23:05;18.55;;;3.30;;
25503;SDS011;13410;52.114;5.718;2022-11-24T04:25:30;16.13;;;2.78;;
25503;SDS011;13410;52.114;5.718;2022-11-24T04:27:56;18.90;;;3.38;;
25503;SDS011;13410;52.114;5.718;2022-11-24T04:30:23;16.73;;;3.53;;
25503;SDS011;13410;52.114;5.718;2022-11-24T04:32:49;26.17;;;3.25;;
25503;SDS011;13410;52.114;5.718;2022-11-24T04:35:15;18.38;;;2.85;;
25503;SDS011;13410;52.114;5.718;2022-11-24T04:37:41;20.75;;;3.30;;
25503;SDS011;13410;52.114;5.718;2022-11-24T04:40:07;24.42;;;3.40;;
25503;SDS011;13410;52.114;5.718;2022-11-24T04:42:34;19.95;;;3.38;;
25503;SDS011;13410;52.114;5.718;2022-11-24T04:45:00;26.98;;;3.92;;
25503;SDS011;13410;52.114;5.718;2022-11-24T04:47:26;24.45;;;3.70;;
25503;SDS011;13410;52.114;5.718;2022-11-24T04:49:52;21.60;;;3.90;;
25503;SDS011;13410;52.114;5.718;2022-11-24T04:52:18;20.40;;;3.70;;
25503;SDS011;13410;52.114;5.718;2022-11-24T04:54:45;23.73;;;4.22;;
25503;SDS011;13410;52.114;5.718;2022-11-24T04:59:44;20.83;;;3.80;;
25503;SDS011;13410;52.114;5.718;2022-11-24T05:02:10;20.20;;;3.90;;
25503;SDS011;13410;52.114;5.718;2022-11-24T05:04:36;18.27;;;3.47;;
25503;SDS011;13410;52.114;5.718;2022-11-24T05:07:03;21.23;;;3.30;;
25503;SDS011;13410;52.114;5.718;2022-11-24T05:09:29;16.50;;;3.55;;
25503;SDS011;13410;52.114;5.718;2022-11-24T05:11:54;20.42;;;3.45;;
25503;SDS011;13410;52.114;5.718;2022-11-24T05:14:20;22.52;;;3.67;;
25503;SDS011;13410;52.114;5.718;2022-11-24T05:16:45;17.50;;;3.78;;
25503;SDS011;13410;52.114;5.718;2022-11-24T05:19:11;21.13;;;3.85;;
25503;SDS011;13410;52.114;5.718;2022-11-24T05:21:37;18.25;;;3.97;;
25503;SDS011;13410;52.114;5.718;2022-11-24T05:24:03;19.65;;;4.28;;
25503;SDS011;13410;52.114;5.718;2022-11-24T05:26:29;20.13;;;4.05;;
25503;SDS011;13410;52.114;5.718;2022-11-24T05:28:54;21.98;;;3.45;;
25503;SDS011;13410;52.114;5.718;2022-11-24T05:31:20;16.38;;;3.45;;
25503;SDS011;13410;52.114;5.718;2022-11-24T05:33:46;13.07;;;3.25;;
25503;SDS011;13410;52.114;5.718;2022-11-24T05:36:11;16.75;;;4.05;;
25503;SDS011;13410;52.114;5.718;2022-11-24T05:38:57;16.95;;;3.47;;
25503;SDS011;13410;52.114;5.718;2022-11-24T05:41:22;13.55;;;3.55;;
25503;SDS011;13410;52.114;5.718;2022-11-24T05:43:48;16.73;;;3.67;;
25503;SDS011;13410;52.114;5.718;2022-11-24T05:46:13;14.98;;;3.30;;
25503;SDS011;13410;52.114;5.718;2022-11-24T05:48:39;15.63;;;4.10;;
25503;SDS011;13410;52.114;5.718;2022-11-24T05:51:05;12.70;;;3.33;;
25503;SDS011;13410;52.114;5.718;2022-11-24T05:53:30;11.23;;;3.78;;
25503;SDS011;13410;52.114;5.718;2022-11-24T05:55:56;10.23;;;2.60;;
25503;SDS011;13410;52.114;5.718;2022-11-24T05:58:21;9.95;;;2.38;;
25503;SDS011;13410;52.114;5.718;2022-11-24T06:00:50;8.13;;;2.45;;
25503;SDS011;13410;52.114;5.718;2022-11-24T06:03:16;9.68;;;2.88;;
25503;SDS011;13410;52.114;5.718;2022-11-24T06:05:44;8.05;;;2.50;;
25503;SDS011;13410;52.114;5.718;2022-11-24T06:08:11;8.00;;;2.72;;
25503;SDS011;13410;52.114;5.718;2022-11-24T06:10:36;8.77;;;2.78;;
25503;SDS011;13410;52.114;5.718;2022-11-24T06:13:05;9.40;;;2.80;;
25503;SDS011;13410;52.114;5.718;2022-11-24T06:15:32;8.00;;;2.90;;
25503;SDS011;13410;52.114;5.718;2022-11-24T06:17:58;6.93;;;2.88;;
25503;SDS011;13410;52.114;5.718;2022-11-24T06:20:24;15.95;;;5.80;;
25503;SDS011;13410;52.114;5.718;2022-11-24T06:22:51;14.45;;;6.00;;
25503;SDS011;13410;52.114;5.718;2022-11-24T06:25:17;10.35;;;4.57;;
25503;SDS011;13410;52.114;5.718;2022-11-24T06:27:43;8.68;;;3.90;;
25503;SDS011;13410;52.114;5.718;2022-11-24T06:30:10;10.95;;;3.65;;
25503;SDS011;13410;52.114;5.718;2022-11-24T06:32:37;8.75;;;2.50;;
25503;SDS011;13410;52.114;5.718;2022-11-24T06:35:04;12.82;;;4.40;;
25503;SDS011;13410;52.114;5.718;2022-11-24T06:37:30;9.90;;;4.28;;
25503;SDS011;13410;52.114;5.718;2022-11-24T06:39:56;11.05;;;4.75;;
25503;SDS011;13410;52.114;5.718;2022-11-24T06:42:21;7.70;;;3.92;;
25503;SDS011;13410;52.114;5.718;2022-11-24T06:44:47;10.45;;;3.90;;
25503;SDS011;13410;52.114;5.718;2022-11-24T06:47:13;12.65;;;5.22;;
25503;SDS011;13410;52.114;5.718;2022-11-24T06:49:38;18.92;;;9.13;;
25503;SDS011;13410;52.114;5.718;2022-11-24T06:52:05;11.50;;;4.35;;
25503;SDS011;13410;52.114;5.718;2022-11-24T06:54:31;12.95;;;5.65;;
25503;SDS011;13410;52.114;5.718;2022-11-24T06:56:57;9.48;;;4.68;;
25503;SDS011;13410;52.114;5.718;2022-11-24T06:59:23;10.05;;;5.18;;
25503;SDS011;13410;52.114;5.718;2022-11-24T07:01:50;10.95;;;5.63;;
25503;SDS011;13410;52.114;5.718;2022-11-24T07:04:16;10.45;;;5.75;;
25503;SDS011;13410;52.114;5.718;2022-11-24T07:06:43;11.10;;;6.95;;
25503;SDS011;13410;52.114;5.718;2022-11-24T07:09:09;12.18;;;7.47;;
25503;SDS011;13410;52.114;5.718;2022-11-24T07:11:36;11.25;;;7.22;;
25503;SDS011;13410;52.114;5.718;2022-11-24T07:14:02;13.13;;;7.75;;
25503;SDS011;13410;52.114;5.718;2022-11-24T07:16:28;13.05;;;7.97;;
25503;SDS011;13410;52.114;5.718;2022-11-24T07:18:54;12.80;;;7.85;;
25503;SDS011;13410;52.114;5.718;2022-11-24T07:21:20;13.85;;;8.90;;
25503;SDS011;13410;52.114;5.718;2022-11-24T07:23:47;12.65;;;8.35;;
25503;SDS011;13410;52.114;5.718;2022-11-24T07:26:17;20.05;;;9.95;;
25503;SDS011;13410;52.114;5.718;2022-11-24T07:28:43;14.18;;;9.45;;
25503;SDS011;13410;52.114;5.718;2022-11-24T07:31:13;16.88;;;9.75;;
25503;SDS011;13410;52.114;5.718;2022-11-24T07:33:42;14.90;;;9.50;;
25503;SDS011;13410;52.114;5.718;2022-11-24T07:36:12;16.05;;;9.52;;
25503;SDS011;13410;52.114;5.718;2022-11-24T07:38:37;16.10;;;10.13;;
25503;SDS011;13410;52.114;5.718;2022-11-24T07:41:04;17.45;;;9.75;;
25503;SDS011;13410;52.114;5.718;2022-11-24T07:43:32;16.48;;;10.13;;
25503;SDS011;13410;52.114;5.718;2022-11-24T07:45:58;18.55;;;11.15;;
25503;SDS011;13410;52.114;5.718;2022-11-24T07:48:24;22.23;;;10.82;;
25503;SDS011;13410;52.114;5.718;2022-11-24T07:50:50;18.42;;;10.70;;
25503;SDS011;13410;52.114;5.718;2022-11-24T07:53:15;20.60;;;10.10;;
25503;SDS011;13410;52.114;5.718;2022-11-24T07:55:41;17.95;;;10.18;;
25503;SDS011;13410;52.114;5.718;2022-11-24T07:58:07;14.95;;;9.40;;
25503;SDS011;13410;52.114;5.718;2022-11-24T08:00:33;18.95;;;10.40;;
25503;SDS011;13410;52.114;5.718;2022-11-24T08:02:58;17.70;;;9.70;;
25503;SDS011;13410;52.114;5.718;2022-11-24T08:05:24;16.95;;;10.27;;
25503;SDS011;13410;52.114;5.718;2022-11-24T08:07:49;17.92;;;9.25;;
25503;SDS011;13410;52.114;5.718;2022-11-24T08:10:15;14.40;;;9.05;;
25503;SDS011;13410;52.114;5.718;2022-11-24T08:12:41;16.05;;;8.95;;
25503;SDS011;13410;52.114;5.718;2022-11-24T08:15:06;16.13;;;10.55;;
25503;SDS011;13410;52.114;5.718;2022-11-24T08:17:33;18.30;;;10.00;;
25503;SDS011;13410;52.114;5.718;2022-11-24T08:19:59;16.50;;;9.85;;
25503;SDS011;13410;52.114;5.718;2022-11-24T08:22:24;21.52;;;10.30;;
25503;SDS011;13410;52.114;5.718;2022-11-24T08:24:53;22.88;;;11.25;;
25503;SDS011;13410;52.114;5.718;2022-11-24T08:27:18;23.92;;;11.82;;
25503;SDS011;13410;52.114;5.718;2022-11-24T08:29:44;17.52;;;9.68;;
25503;SDS011;13410;52.114;5.718;2022-11-24T08:32:10;16.17;;;8.70;;
25503;SDS011;13410;52.114;5.718;2022-11-24T08:34:37;17.42;;;9.70;;
25503;SDS011;13410;52.114;5.718;2022-11-24T08:37:03;18.23;;;10.07;;
25503;SDS011;13410;52.114;5.718;2022-11-24T08:39:29;17.55;;;8.35;;
25503;SDS011;13410;52.114;5.718;2022-11-24T08:41:55;13.88;;;9.20;;
25503;SDS011;13410;52.114;5.718;2022-11-24T08:44:21;17.25;;;8.43;;
25503;SDS011;13410;52.114;5.718;2022-11-24T08:46:47;16.33;;;8.60;;
25503;SDS011;13410;52.114;5.718;2022-11-24T08:49:14;14.70;;;7.82;;
25503;SDS011;13410;52.114;5.718;2022-11-24T08:51:40;13.30;;;7.22;;
25503;SDS011;13410;52.114;5.718;2022-11-24T08:54:06;15.95;;;7.78;;
25503;SDS011;13410;52.114;5.718;2022-11-24T08:56:34;16.70;;;7.15;;
25503;SDS011;13410;52.114;5.718;2022-11-24T08:58:59;16.15;;;8.00;;
25503;SDS011;13410;52.114;5.718;2022-11-24T09:01:26;16.02;;;7.47;;
25503;SDS011;13410;52.114;5.718;2022-11-24T09:03:53;19.15;;;6.82;;
25503;SDS011;13410;52.114;5.718;2022-11-24T09:06:20;15.05;;;6.03;;
25503;SDS011;13410;52.114;5.718;2022-11-24T09:08:49;18.75;;;7.35;;
25503;SDS011;13410;52.114;5.718;2022-11-24T09:11:16;15.52;;;6.95;;
25503;SDS011;13410;52.114;5.718;2022-11-24T09:13:42;14.40;;;7.43;;
25503;SDS011;13410;52.114;5.718;2022-11-24T09:16:09;16.20;;;7.00;;
25503;SDS011;13410;52.114;5.718;2022-11-24T09:18:37;12.35;;;6.45;;
25503;SDS011;13410;52.114;5.718;2022-11-24T09:21:10;12.75;;;6.80;;
25503;SDS011;13410;52.114;5.718;2022-11-24T09:23:37;17.33;;;7.72;;
25503;SDS011;13410;52.114;5.718;2022-11-24T09:28:30;17.45;;;7.63;;
25503;SDS011;13410;52.114;5.718;2022-11-24T09:30:58;17.60;;;7.97;;
25503;SDS011;13410;52.114;5.718;2022-11-24T09:33:25;17.75;;;8.63;;
25503;SDS011;13410;52.114;5.718;2022-11-24T09:35:50;16.50;;;7.78;;
25503;SDS011;13410;52.114;5.718;2022-11-24T09:38:16;16.55;;;8.05;;
25503;SDS011;13410;52.114;5.718;2022-11-24T09:40:41;16.65;;;7.60;;
25503;SDS011;13410;52.114;5.718;2022-11-24T09:43:55;14.32;;;6.43;;
25503;SDS011;13410;52.114;5.718;2022-11-24T09:46:15;16.20;;;7.15;;
25503;SDS011;13410;52.114;5.718;2022-11-24T09:48:51;24.13;;;6.30;;
25503;SDS011;13410;52.114;5.718;2022-11-24T09:51:20;17.67;;;6.32;;
25503;SDS011;13410;52.114;5.718;2022-11-24T09:53:52;17.88;;;6.30;;
25503;SDS011;13410;52.114;5.718;2022-11-24T09:56:23;18.52;;;6.32;;
25503;SDS011;13410;52.114;5.718;2022-11-24T10:01:30;18.67;;;6.75;;
25503;SDS011;13410;52.114;5.718;2022-11-24T10:03:59;17.52;;;6.65;;
25503;SDS011;13410;52.114;5.718;2022-11-24T10:06:27;15.25;;;5.20;;
25503;SDS011;13410;52.114;5.718;2022-11-24T10:14:49;17.80;;;6.18;;
25503;SDS011;13410;52.114;5.718;2022-11-24T10:25:58;14.65;;;4.72;;
25503;SDS011;13410;52.114;5.718;2022-11-24T10:28:35;12.13;;;4.97;;
25503;SDS011;13410;52.114;5.718;2022-11-24T10:31:12;20.48;;;7.13;;
25503;SDS011;13410;52.114;5.718;2022-11-24T10:33:48;24.60;;;7.63;;
25503;SDS011;13410;52.114;5.718;2022-11-24T10:36:19;12.65;;;5.78;;
25503;SDS011;13410;52.114;5.718;2022-11-24T10:39:10;19.40;;;5.13;;
25503;SDS011;13410;52.114;5.718;2022-11-24T10:42:00;16.60;;;5.05;;
25503;SDS011;13410;52.114;5.718;2022-11-24T10:46:53;14.63;;;4.00;;
25503;SDS011;13410;52.114;5.718;2022-11-24T10:49:19;12.25;;;4.97;;
25503;SDS011;13410;52.114;5.718;2022-11-24T10:52:06;16.25;;;5.03;;
25503;SDS011;13410;52.114;5.718;2022-11-24T10:54:36;15.90;;;3.95;;
25503;SDS011;13410;52.114;5.718;2022-11-24T10:57:29;18.55;;;5.18;;
25503;SDS011;13410;52.114;5.718;2022-11-24T10:59:59;13.35;;;3.83;;
25503;SDS011;13410;52.114;5.718;2022-11-24T11:02:36;18.83;;;5.18;;
25503;SDS011;13410;52.114;5.718;2022-11-24T11:10:40;14.27;;;5.80;;
25503;SDS011;13410;52.114;5.718;2022-11-24T11:15:53;15.48;;;4.63;;
25503;SDS011;13410;52.114;5.718;2022-11-24T11:18:20;14.68;;;5.10;;
25503;SDS011;13410;52.114;5.718;2022-11-24T11:23:21;12.52;;;4.03;;
25503;SDS011;13410;52.114;5.718;2022-11-24T11:28:59;17.35;;;6.75;;
25503;SDS011;13410;52.114;5.718;2022-11-24T11:31:26;20.92;;;4.88;;
25503;SDS011;13410;52.114;5.718;2022-11-24T11:33:56;18.20;;;4.65;;
25503;SDS011;13410;52.114;5.718;2022-11-24T11:36:46;18.85;;;6.45;;
25503;SDS011;13410;52.114;5.718;2022-11-24T11:41:51;20.95;;;4.75;;
25503;SDS011;13410;52.114;5.718;2022-11-24T11:44:49;19.23;;;4.53;;
25503;SDS011;13410;52.114;5.718;2022-11-24T11:47:27;17.25;;;4.20;;
25503;SDS011;13410;52.114;5.718;2022-11-24T11:49:57;19.45;;;4.32;;
25503;SDS011;13410;52.114;5.718;2022-11-24T11:57:57;20.73;;;5.07;;
25503;SDS011;13410;52.114;5.718;2022-11-24T12:00:45;17.45;;;4.78;;
25503;SDS011;13410;52.114;5.718;2022-11-24T12:06:04;14.75;;;3.67;;
25503;SDS011;13410;52.114;5.718;2022-11-24T12:11:42;14.68;;;4.05;;
25503;SDS011;13410;52.114;5.718;2022-11-24T12:25:33;24.27;;;4.57;;
25503;SDS011;13410;52.114;5.718;2022-11-24T12:28:31;14.23;;;3.80;;
25503;SDS011;13410;52.114;5.718;2022-11-24T12:31:07;18.42;;;4.78;;
25503;SDS011;13410;52.114;5.718;2022-11-24T12:33:56;17.30;;;3.70;;
25503;SDS011;13410;52.114;5.718;2022-11-24T12:50:17;20.65;;;4.70;;
25503;SDS011;13410;52.114;5.718;2022-11-24T12:55:34;19.30;;;4.45;;
25503;SDS011;13410;52.114;5.718;2022-11-24T13:00:42;15.90;;;3.95;;
25503;SDS011;13410;52.114;5.718;2022-11-24T13:03:30;18.98;;;4.43;;
25503;SDS011;13410;52.114;5.718;2022-11-24T13:08:54;17.08;;;3.78;;
25503;SDS011;13410;52.114;5.718;2022-11-24T13:13:55;15.13;;;3.60;;
25503;SDS011;13410;52.114;5.718;2022-11-24T13:16:25;17.00;;;3.50;;
25503;SDS011;13410;52.114;5.718;2022-11-24T13:18:55;15.98;;;3.67;;
25503;SDS011;13410;52.114;5.718;2022-11-24T13:29:02;19.67;;;4.10;;
25503;SDS011;13410;52.114;5.718;2022-11-24T13:31:29;15.48;;;3.45;;
25503;SDS011;13410;52.114;5.718;2022-11-24T13:33:55;15.80;;;3.05;;
25503;SDS011;13410;52.114;5.718;2022-11-24T13:49:38;13.18;;;3.20;;
25503;SDS011;13410;52.114;5.718;2022-11-24T13:57:45;17.58;;;3.60;;
25503;SDS011;13410;52.114;5.718;2022-11-24T14:00:19;18.73;;;3.10;;
25503;SDS011;13410;52.114;5.718;2022-11-24T14:02:59;11.77;;;2.63;;
25503;SDS011;13410;52.114;5.718;2022-11-24T14:05:49;21.27;;;4.60;;
25503;SDS011;13410;52.114;5.718;2022-11-24T14:08:26;20.17;;;4.13;;
25503;SDS011;13410;52.114;5.718;2022-11-24T14:10:55;16.70;;;3.85;;
25503;SDS011;13410;52.114;5.718;2022-11-24T14:18:30;18.42;;;3.83;;
25503;SDS011;13410;52.114;5.718;2022-11-24T14:20:57;18.27;;;3.67;;
25503;SDS011;13410;52.114;5.718;2022-11-24T14:23:24;19.15;;;3.55;;
25503;SDS011;13410;52.114;5.718;2022-11-24T14:25:50;16.00;;;4.95;;
25503;SDS011;13410;52.114;5.718;2022-11-24T14:31:35;28.30;;;8.82;;
25503;SDS011;13410;52.114;5.718;2022-11-24T14:33:48;23.05;;;3.95;;
25503;SDS011;13410;52.114;5.718;2022-11-24T14:36:15;16.20;;;3.38;;
25503;SDS011;13410;52.114;5.718;2022-11-24T14:38:42;17.85;;;4.30;;
25503;SDS011;13410;52.114;5.718;2022-11-24T14:41:41;12.05;;;3.58;;
25503;SDS011;13410;52.114;5.718;2022-11-24T14:46:39;24.00;;;5.20;;
25503;SDS011;13410;52.114;5.718;2022-11-24T14:49:04;17.65;;;5.05;;
25503;SDS011;13410;52.114;5.718;2022-11-24T14:51:34;17.20;;;4.88;;
25503;SDS011;13410;52.114;5.718;2022-11-24T14:54:04;20.55;;;4.05;;
25503;SDS011;13410;52.114;5.718;2022-11-24T14:56:37;11.45;;;2.75;;
25503;SDS011;13410;52.114;5.718;2022-11-24T14:59:18;16.38;;;4.38;;
25503;SDS011;13410;52.114;5.718;2022-11-24T15:01:46;22.00;;;5.90;;
25503;SDS011;13410;52.114;5.718;2022-11-24T15:04:21;24.83;;;9.90;;
25503;SDS011;13410;52.114;5.718;2022-11-24T15:12:06;17.27;;;4.95;;
25503;SDS011;13410;52.114;5.718;2022-11-24T15:14:43;19.08;;;3.78;;
25503;SDS011;13410;52.114;5.718;2022-11-24T15:17:16;21.65;;;4.80;;
25503;SDS011;13410;52.114;5.718;2022-11-24T15:19:57;19.80;;;4.75;;
25503;SDS011;13410;52.114;5.718;2022-11-24T15:22:39;17.90;;;4.35;;
25503;SDS011;13410;52.114;5.718;2022-11-24T15:27:51;18.02;;;3.72;;
25503;SDS011;13410;52.114;5.718;2022-11-24T15:30:17;14.10;;;2.95;;
25503;SDS011;13410;52.114;5.718;2022-11-24T15:32:56;19.17;;;3.45;;
25503;SDS011;13410;52.114;5.718;2022-11-24T15:35:23;15.82;;;3.00;;
25503;SDS011;13410;52.114;5.718;2022-11-24T15:37:50;16.65;;;3.03;;
25503;SDS011;13410;52.114;5.718;2022-11-24T15:40:15;17.60;;;2.63;;
25503;SDS011;13410;52.114;5.718;2022-11-24T15:42:44;16.45;;;2.90;;
25503;SDS011;13410;52.114;5.718;2022-11-24T15:45:15;19.60;;;2.45;;
25503;SDS011;13410;52.114;5.718;2022-11-24T15:47:40;22.05;;;3.55;;
25503;SDS011;13410;52.114;5.718;2022-11-24T15:50:06;16.15;;;2.65;;
25503;SDS011;13410;52.114;5.718;2022-11-24T15:52:32;17.75;;;3.65;;
25503;SDS011;13410;52.114;5.718;2022-11-24T15:54:58;18.25;;;4.30;;
25503;SDS011;13410;52.114;5.718;2022-11-24T15:57:24;19.98;;;5.78;;
25503;SDS011;13410;52.114;5.718;2022-11-24T15:59:50;21.13;;;6.00;;
25503;SDS011;13410;52.114;5.718;2022-11-24T16:02:16;15.40;;;4.38;;
25503;SDS011;13410;52.114;5.718;2022-11-24T16:04:43;15.45;;;3.20;;
25503;SDS011;13410;52.114;5.718;2022-11-24T16:07:12;17.08;;;3.30;;
25503;SDS011;13410;52.114;5.718;2022-11-24T16:09:38;14.77;;;3.13;;
25503;SDS011;13410;52.114;5.718;2022-11-24T16:12:03;30.65;;;8.50;;
25503;SDS011;13410;52.114;5.718;2022-11-24T16:14:32;30.35;;;10.30;;
25503;SDS011;13410;52.114;5.718;2022-11-24T16:16:58;29.45;;;6.10;;
25503;SDS011;13410;52.114;5.718;2022-11-24T16:19:23;81.70;;;28.30;;
25503;SDS011;13410;52.114;5.718;2022-11-24T16:21:49;67.47;;;26.40;;
25503;SDS011;13410;52.114;5.718;2022-11-24T16:24:15;35.60;;;16.25;;
25503;SDS011;13410;52.114;5.718;2022-11-24T16:26:40;32.63;;;10.50;;
25503;SDS011;13410;52.114;5.718;2022-11-24T16:29:06;29.08;;;9.98;;
25503;SDS011;13410;52.114;5.718;2022-11-24T16:31:31;41.15;;;12.60;;
25503;SDS011;13410;52.114;5.718;2022-11-24T16:33:57;47.45;;;18.63;;
25503;SDS011;13410;52.114;5.718;2022-11-24T16:36:23;35.08;;;11.38;;
25503;SDS011;13410;52.114;5.718;2022-11-24T16:38:48;79.80;;;35.22;;
25503;SDS011;13410;52.114;5.718;2022-11-24T16:41:16;34.72;;;13.52;;
25503;SDS011;13410;52.114;5.718;2022-11-24T16:43:41;71.65;;;31.60;;
25503;SDS011;13410;52.114;5.718;2022-11-24T16:48:35;26.70;;;8.85;;
25503;SDS011;13410;52.114;5.718;2022-11-24T16:51:04;28.88;;;10.18;;
25503;SDS011;13410;52.114;5.718;2022-11-24T16:53:31;36.35;;;13.13;;
25503;SDS011;13410;52.114;5.718;2022-11-24T16:55:56;27.60;;;9.77;;
25503;SDS011;13410;52.114;5.718;2022-11-24T16:58:22;20.77;;;6.97;;
25503;SDS011;13410;52.114;5.718;2022-11-24T17:00:48;26.30;;;8.10;;